Bierbeek, Belgium
Current Conditions -  °F | °C
As of 7:25 PM on Saturday 25 Oct 2014 (Local Time) from EBBE Reporting Station
Broken Clouds Broken Clouds  
Wind Chill: 52°   Ceiling: 4200
Heat Index: 52°   Visibility: 6mi
Dew Point: 48°   Wind: 1mph
Humidity: 88%   Direction: NA
Pressure: 30.18"   Gusts: NA
Location:  50.83°N, 4.76°E
Report Text: EBBE 251725Z AUTO VRB01KT 9999 BKN042/// 11/09 Q1022 BLU
Loading
Personal Weather Stations






























Interactive Weather Map
Tropical Storm Tracking
New forecast layout! Learn more

10-Day Weather Forecast

Advertisements
Track Severe Weather on mobile